createdAt,value
2017-07-26T00:03:39.253Z,83.20
2017-07-26T00:09:05.562Z,83.10
2017-07-26T00:14:32.666Z,83.10
2017-07-26T00:19:58.945Z,83.10
2017-07-26T00:25:25.246Z,83.10
2017-07-26T00:30:51.562Z,83.10
2017-07-26T00:36:17.836Z,83.10
2017-07-26T00:41:44.224Z,83.10
2017-07-26T00:47:11.257Z,83.10
2017-07-26T00:52:37.532Z,83.10
2017-07-26T00:58:03.808Z,83.10
2017-07-26T01:03:30.124Z,83.10
2017-07-26T01:08:56.417Z,83.30
2017-07-26T01:14:23.475Z,83.40
2017-07-26T01:19:49.845Z,83.40
2017-07-26T01:25:16.135Z,83.40
2017-07-26T01:30:42.444Z,83.50
2017-07-26T01:36:08.760Z,83.50
2017-07-26T01:41:35.461Z,83.60
2017-07-26T01:47:01.768Z,83.70
2017-07-26T01:52:28.224Z,83.70
2017-07-26T01:57:54.559Z,83.80
2017-07-26T02:03:20.873Z,83.90
2017-07-26T02:08:47.201Z,84.70
2017-07-26T02:14:13.522Z,84.00
2017-07-26T02:19:40.607Z,84.30
2017-07-26T02:25:07.171Z,84.30
2017-07-26T02:30:34.214Z,84.40
2017-07-26T02:36:01.334Z,84.40
2017-07-26T02:41:28.387Z,84.60
2017-07-26T02:46:54.677Z,84.40
2017-07-26T02:52:21.886Z,85.00
2017-07-26T02:57:48.210Z,84.90
2017-07-26T03:03:14.476Z,85.10
2017-07-26T03:08:40.754Z,85.20
2017-07-26T03:14:07.066Z,85.30
2017-07-26T03:19:33.457Z,85.30
2017-07-26T03:24:59.922Z,85.40
2017-07-26T03:30:26.389Z,85.40
2017-07-26T03:35:52.673Z,85.40
2017-07-26T03:41:19.002Z,85.60
2017-07-26T03:46:45.317Z,85.50
2017-07-26T03:52:11.618Z,85.50
2017-07-26T03:57:37.967Z,85.60
2017-07-26T04:03:04.278Z,85.60
2017-07-26T04:08:30.661Z,85.70
2017-07-26T04:13:56.968Z,85.80
2017-07-26T04:19:23.323Z,85.80
2017-07-26T04:24:49.652Z,85.80
2017-07-26T04:30:15.920Z,86.00
2017-07-26T04:35:42.359Z,86.00
2017-07-26T04:41:08.690Z,86.10
2017-07-26T04:46:34.985Z,86.30
2017-07-26T04:52:03.494Z,86.40
2017-07-26T04:57:29.777Z,86.50
2017-07-26T05:02:56.096Z,86.50
2017-07-26T05:08:22.422Z,86.40
2017-07-26T05:13:48.709Z,86.50
2017-07-26T05:19:15.435Z,86.40
2017-07-26T05:24:41.734Z,86.30
2017-07-26T05:30:08.025Z,86.30
2017-07-26T05:35:34.319Z,86.40
2017-07-26T05:41:00.606Z,86.30
2017-07-26T05:46:26.934Z,86.30
2017-07-26T05:51:53.232Z,86.30
2017-07-26T05:57:19.508Z,86.40
2017-07-26T06:02:45.795Z,86.30
2017-07-26T06:08:12.834Z,86.20
2017-07-26T06:13:39.890Z,86.30
2017-07-26T06:19:06.201Z,86.20
2017-07-26T06:24:32.537Z,86.20
2017-07-26T06:29:58.862Z,86.00
2017-07-26T06:35:25.162Z,86.00
2017-07-26T06:40:51.497Z,86.10
2017-07-26T06:46:17.824Z,86.20
2017-07-26T06:51:44.427Z,86.30
2017-07-26T06:57:10.696Z,86.20
2017-07-26T07:02:37.733Z,86.20
2017-07-26T07:08:04.026Z,86.20
2017-07-26T07:13:31.049Z,86.80
2017-07-26T07:18:58.086Z,86.30
2017-07-26T07:24:24.385Z,86.20
2017-07-26T07:29:50.661Z,86.20
2017-07-26T07:35:16.977Z,86.20
2017-07-26T07:40:43.303Z,86.20
2017-07-26T07:46:09.611Z,86.30
2017-07-26T07:51:35.917Z,86.00
2017-07-26T07:57:02.211Z,86.00
2017-07-26T08:02:28.508Z,85.90
2017-07-26T08:07:54.842Z,86.00
2017-07-26T08:13:21.149Z,86.00
2017-07-26T08:18:47.441Z,85.80
2017-07-26T08:24:13.729Z,85.90
2017-07-26T08:29:40.022Z,86.00
2017-07-26T08:35:06.309Z,85.80
2017-07-26T08:40:32.662Z,86.00
2017-07-26T08:45:58.920Z,86.20
2017-07-26T08:51:25.213Z,86.20
2017-07-26T08:56:51.857Z,86.10
2017-07-26T09:02:18.166Z,86.20
2017-07-26T09:07:44.458Z,85.90
2017-07-26T09:13:10.758Z,86.10
2017-07-26T09:18:37.094Z,86.00
2017-07-26T09:24:03.416Z,85.90
2017-07-26T09:29:29.712Z,86.40
2017-07-26T09:34:56.001Z,85.80
2017-07-26T09:40:22.304Z,85.70
2017-07-26T09:45:48.624Z,85.60
2017-07-26T09:51:14.941Z,85.70
2017-07-26T09:56:41.221Z,85.60
2017-07-26T10:02:08.234Z,85.80
2017-07-26T10:07:35.961Z,85.70
2017-07-26T10:13:02.253Z,85.70
2017-07-26T10:18:28.551Z,85.70
2017-07-26T10:23:54.824Z,85.80
2017-07-26T10:29:21.408Z,85.70
2017-07-26T10:34:47.729Z,85.70
2017-07-26T10:40:14.012Z,85.70
2017-07-26T10:45:40.320Z,85.80
2017-07-26T10:51:07.349Z,85.90
2017-07-26T10:56:34.380Z,85.70
2017-07-26T11:02:01.405Z,85.70
2017-07-26T11:07:28.453Z,85.60
2017-07-26T11:12:54.745Z,85.50
2017-07-26T11:18:21.067Z,85.50
2017-07-26T11:23:48.119Z,86.20
2017-07-26T11:29:14.730Z,85.50
2017-07-26T11:34:41.768Z,86.00
2017-07-26T11:40:08.070Z,86.00
2017-07-26T11:45:35.093Z,86.10
2017-07-26T11:51:01.381Z,86.10
2017-07-26T11:56:27.684Z,86.10
2017-07-26T12:01:53.997Z,86.20
2017-07-26T12:07:20.293Z,86.20
2017-07-26T12:12:46.587Z,86.10
2017-07-26T12:18:12.882Z,86.10
2017-07-26T12:23:39.923Z,86.00
2017-07-26T12:29:06.963Z,86.10
2017-07-26T12:34:33.241Z,86.00
2017-07-26T12:39:59.516Z,86.00
2017-07-26T12:45:25.884Z,85.90
2017-07-26T12:50:53.058Z,86.00
2017-07-26T12:56:19.354Z,85.90
2017-07-26T13:01:45.660Z,85.90
2017-07-26T13:07:12.689Z,86.00
2017-07-26T13:12:40.823Z,86.00
2017-07-26T13:18:07.120Z,85.80
2017-07-26T13:23:33.426Z,85.90
2017-07-26T13:28:59.730Z,85.90
2017-07-26T13:34:26.051Z,85.50
2017-07-26T13:39:52.402Z,85.50
2017-07-26T13:45:18.765Z,85.60
2017-07-26T13:50:45.093Z,85.50
2017-07-26T13:56:11.369Z,85.30
2017-07-26T14:01:38.435Z,85.00
2017-07-26T14:07:04.750Z,85.00
2017-07-26T14:12:31.382Z,85.10
2017-07-26T14:17:57.729Z,85.30
2017-07-26T14:23:24.024Z,85.10
2017-07-26T14:28:50.327Z,85.20
2017-07-26T14:34:16.833Z,85.00
2017-07-26T14:39:43.170Z,85.00
2017-07-26T14:45:09.482Z,85.00
2017-07-26T14:50:35.760Z,85.20
2017-07-26T14:56:02.032Z,85.20
2017-07-26T15:01:28.360Z,85.10
2017-07-26T15:06:54.655Z,85.10
2017-07-26T15:12:20.979Z,85.20
2017-07-26T15:17:48.181Z,85.20
2017-07-26T15:23:14.507Z,84.90
2017-07-26T15:28:40.784Z,85.10
2017-07-26T15:34:07.092Z,85.20
2017-07-26T15:39:33.397Z,84.90
2017-07-26T15:45:00.428Z,84.90
2017-07-26T15:50:27.489Z,85.10
2017-07-26T15:55:53.790Z,85.00
2017-07-26T16:01:20.107Z,85.00
2017-07-26T16:06:46.449Z,85.30
2017-07-26T16:12:12.744Z,85.20
2017-07-26T16:17:39.050Z,85.30
2017-07-26T16:23:05.371Z,85.30
2017-07-26T16:28:31.679Z,85.30
2017-07-26T16:33:57.992Z,85.40
2017-07-26T16:39:24.324Z,85.50
2017-07-26T16:44:50.651Z,85.60
2017-07-26T16:50:17.729Z,85.60
2017-07-26T16:55:44.785Z,85.40
2017-07-26T17:01:11.096Z,85.60
2017-07-26T17:06:37.682Z,85.70
2017-07-26T17:12:04.755Z,86.50
2017-07-26T17:17:31.069Z,86.00
2017-07-26T17:22:57.401Z,86.00
2017-07-26T17:28:23.740Z,86.10
2017-07-26T17:33:50.053Z,86.10
2017-07-26T17:39:16.358Z,86.20
2017-07-26T17:44:43.101Z,86.30
2017-07-26T17:50:09.400Z,86.30
2017-07-26T17:55:35.744Z,86.30
2017-07-26T18:01:02.083Z,86.50
2017-07-26T18:06:29.140Z,86.60
2017-07-26T18:11:55.450Z,86.50
2017-07-26T18:17:21.796Z,86.60
2017-07-26T18:22:48.095Z,86.60
2017-07-26T18:28:14.412Z,86.70
2017-07-26T18:33:40.751Z,86.80
2017-07-26T18:39:07.082Z,86.90
2017-07-26T18:44:33.374Z,86.90
2017-07-26T18:49:59.664Z,87.00
2017-07-26T18:55:26.464Z,87.00
2017-07-26T19:00:52.794Z,87.00
2017-07-26T19:06:19.180Z,87.00
2017-07-26T19:11:45.555Z,87.10
2017-07-26T19:17:11.851Z,87.20
2017-07-26T19:22:38.909Z,87.20
2017-07-26T19:28:05.350Z,87.20
2017-07-26T19:33:31.670Z,87.30
2017-07-26T19:38:57.980Z,87.40
2017-07-26T19:44:24.440Z,87.40
2017-07-26T19:49:51.484Z,87.50
2017-07-26T19:55:18.576Z,88.20
2017-07-26T20:00:44.860Z,87.60
2017-07-26T20:06:11.209Z,87.50
2017-07-26T20:11:37.521Z,87.50
2017-07-26T20:17:03.906Z,87.50
2017-07-26T20:22:30.267Z,87.60
2017-07-26T20:27:56.574Z,87.70
2017-07-26T20:33:22.868Z,87.70
2017-07-26T20:38:49.185Z,87.80
2017-07-26T20:44:15.494Z,87.80
2017-07-26T20:49:48.743Z,87.80
2017-07-26T20:55:15.091Z,87.80
2017-07-26T21:00:41.464Z,87.90
2017-07-26T21:06:07.902Z,87.90
2017-07-26T21:11:34.326Z,87.90
2017-07-26T21:17:00.644Z,87.90
2017-07-26T21:22:26.981Z,87.90
2017-07-26T21:27:53.308Z,87.90
2017-07-26T21:33:19.644Z,87.90
2017-07-26T21:38:45.941Z,88.00
2017-07-26T21:44:12.340Z,87.90
2017-07-26T21:49:38.636Z,87.90
2017-07-26T21:55:04.930Z,87.90
2017-07-26T22:00:39.249Z,88.00
2017-07-26T22:06:05.612Z,87.90
2017-07-26T22:11:31.943Z,87.80
2017-07-26T22:16:59.021Z,87.90
2017-07-26T22:22:25.378Z,87.80
2017-07-26T22:27:51.808Z,87.80
2017-07-26T22:33:18.153Z,87.80
2017-07-26T22:38:45.224Z,87.80
2017-07-26T22:44:11.583Z,87.80
2017-07-26T22:49:38.701Z,87.70
2017-07-26T22:55:05.051Z,87.70
2017-07-26T23:00:31.479Z,88.30
2017-07-26T23:05:57.875Z,87.60
2017-07-26T23:11:24.342Z,87.60
2017-07-26T23:16:50.782Z,87.60
2017-07-26T23:22:17.135Z,87.60
2017-07-26T23:27:43.481Z,87.50
2017-07-26T23:33:10.078Z,87.50
2017-07-26T23:38:36.470Z,87.60
2017-07-26T23:44:03.570Z,87.40
2017-07-26T23:49:29.958Z,87.30
2017-07-26T23:54:56.321Z,87.30
